createdAt,value
2023-01-20T00:01:43.028Z,40.10
2023-01-20T00:05:41.159Z,44.30
2023-01-20T00:09:40.060Z,45.50
2023-01-20T00:13:40.120Z,41.00
2023-01-20T00:17:37.978Z,43.90
2023-01-20T00:21:36.044Z,49.30
2023-01-20T00:25:34.982Z,47.20
2023-01-20T00:29:33.026Z,44.30
2023-01-20T00:33:31.004Z,46.50
2023-01-20T00:37:29.092Z,49.20
2023-01-20T00:41:27.069Z,48.80
2023-01-20T00:45:24.980Z,49.10
2023-01-20T00:49:24.929Z,48.80
2023-01-20T00:53:23.052Z,60.20
2023-01-20T00:57:20.932Z,56.80
2023-01-20T01:01:19.081Z,54.30
2023-01-20T01:05:16.942Z,57.00
2023-01-20T01:09:14.965Z,51.80
2023-01-20T01:13:17.963Z,43.70
2023-01-20T01:17:15.941Z,42.80
2023-01-20T01:21:14.203Z,40.80
2023-01-20T01:25:12.064Z,39.90
2023-01-20T01:29:09.930Z,49.00
2023-01-20T01:33:07.890Z,44.00
2023-01-20T01:37:06.919Z,46.20
2023-01-20T01:41:05.869Z,42.10
2023-01-20T01:45:24.896Z,44.60
2023-01-20T01:49:40.899Z,43.20
2023-01-20T01:53:41.888Z,39.10
2023-01-20T01:57:39.966Z,51.00
2023-01-20T02:01:37.962Z,47.10
2023-01-20T02:05:39.948Z,43.10
2023-01-20T02:09:39.846Z,45.20
2023-01-20T02:13:39.101Z,49.10
2023-01-20T02:17:50.820Z,45.30
2023-01-20T02:21:53.839Z,45.10
2023-01-20T02:26:28.823Z,49.20
2023-01-20T02:30:50.881Z,43.30
2023-01-20T02:35:00.836Z,43.70
2023-01-20T02:39:10.794Z,47.50
2023-01-20T02:43:26.798Z,43.80
2023-01-20T02:47:33.811Z,50.40
2023-01-20T02:51:40.844Z,46.00
2023-01-20T02:55:56.837Z,48.70
2023-01-20T02:59:57.772Z,51.90
2023-01-20T03:04:00.837Z,51.00
2023-01-20T03:08:00.764Z,52.90
2023-01-20T03:12:07.822Z,55.80
2023-01-20T03:16:13.912Z,56.00
2023-01-20T03:20:11.766Z,57.20
2023-01-20T03:24:15.768Z,54.80
2023-01-20T03:28:13.844Z,53.40
2023-01-20T03:32:16.719Z,46.70
2023-01-20T03:36:14.818Z,50.40
2023-01-20T03:40:12.800Z,53.60
2023-01-20T03:44:21.735Z,54.70
2023-01-20T03:48:31.693Z,46.70
2023-01-20T03:52:49.773Z,53.50
2023-01-20T03:56:54.689Z,44.30
2023-01-20T04:00:56.717Z,44.40
2023-01-20T04:04:57.710Z,40.70
2023-01-20T04:09:09.704Z,40.40
2023-01-20T04:13:07.692Z,34.90
2023-01-20T04:17:11.824Z,35.30
2023-01-20T04:21:17.635Z,36.70
2023-01-20T04:25:28.678Z,34.00
2023-01-20T04:29:26.649Z,36.20
2023-01-20T04:33:24.639Z,36.90
2023-01-20T04:37:22.608Z,36.50
2023-01-20T04:41:20.783Z,34.00
2023-01-20T04:45:20.710Z,38.20
2023-01-20T04:49:18.606Z,42.10
2023-01-20T04:53:16.666Z,36.50
2023-01-20T04:57:14.646Z,41.00
2023-01-20T05:01:16.643Z,41.40
2023-01-20T05:05:14.917Z,36.60
2023-01-20T05:09:12.573Z,46.40
2023-01-20T05:13:10.615Z,41.70
2023-01-20T05:17:08.596Z,49.00
2023-01-20T05:21:06.718Z,43.90
2023-01-20T05:25:04.600Z,47.00
2023-01-20T05:29:02.583Z,44.20
2023-01-20T05:33:00.561Z,48.80
2023-01-20T05:36:58.588Z,49.60
2023-01-20T05:40:56.608Z,43.60
2023-01-20T05:44:54.544Z,45.40
2023-01-20T05:48:52.548Z,46.50
2023-01-20T05:52:50.649Z,45.70
2023-01-20T05:56:48.625Z,51.10
2023-01-20T06:00:46.515Z,52.30
2023-01-20T06:04:37.598Z,48.80
2023-01-20T06:08:35.492Z,47.10
2023-01-20T06:12:33.576Z,55.80
2023-01-20T06:16:32.562Z,59.80
2023-01-20T06:20:30.462Z,62.00
2023-01-20T06:24:28.543Z,61.20
2023-01-20T06:28:26.492Z,56.00
2023-01-20T06:32:25.495Z,48.00
2023-01-20T06:36:24.478Z,52.90
2023-01-20T06:40:22.449Z,45.00
2023-01-20T06:44:20.436Z,47.90
2023-01-20T06:48:18.475Z,51.10
2023-01-20T06:52:16.416Z,52.60
2023-01-20T06:56:15.522Z,45.60
2023-01-20T06:59:56.740Z,50.70
2023-01-20T07:03:21.095Z,54.60
2023-01-20T07:06:44.933Z,52.10
2023-01-20T07:10:09.901Z,51.40
2023-01-20T07:13:33.816Z,58.60
2023-01-20T07:16:57.711Z,58.60
2023-01-20T07:20:21.510Z,51.90
2023-01-20T07:23:45.782Z,55.80
2023-01-20T07:27:09.607Z,54.50
2023-01-20T07:30:33.682Z,57.10
2023-01-20T07:33:58.659Z,60.10
2023-01-20T07:37:22.550Z,63.40
2023-01-20T07:40:46.566Z,58.10
2023-01-20T07:44:10.858Z,60.50
2023-01-20T07:47:34.643Z,57.50
2023-01-20T07:51:03.125Z,64.10
2023-01-20T07:54:27.042Z,75.30
2023-01-20T07:57:50.887Z,53.90
2023-01-20T08:01:20.617Z,69.80
2023-01-20T08:04:44.682Z,69.20
2023-01-20T08:08:08.480Z,67.10
2023-01-20T08:11:33.207Z,89.70
2023-01-20T08:14:57.181Z,71.40
2023-01-20T08:18:21.045Z,54.60
2023-01-20T08:21:44.891Z,59.80
2023-01-20T08:25:09.382Z,69.10
2023-01-20T08:28:37.257Z,63.70
2023-01-20T08:32:02.149Z,67.40
2023-01-20T08:35:26.411Z,61.10
2023-01-20T08:38:50.532Z,68.60
2023-01-20T08:42:16.872Z,61.40
2023-01-20T08:45:43.718Z,61.70
2023-01-20T08:49:18.501Z,52.60
2023-01-20T08:52:43.542Z,52.30
2023-01-20T08:56:07.960Z,37.70
2023-01-20T08:59:31.835Z,39.40
2023-01-20T09:02:55.788Z,40.60
2023-01-20T09:06:21.745Z,38.40
2023-01-20T09:13:09.499Z,40.20
2023-01-20T09:16:33.684Z,32.40
2023-01-20T09:19:57.654Z,32.40
2023-01-20T09:23:21.448Z,31.80
2023-01-20T09:26:45.633Z,32.30
2023-01-20T09:30:10.542Z,33.30
2023-01-20T09:33:38.238Z,35.10
2023-01-20T09:37:23.326Z,39.80
2023-01-20T09:41:23.780Z,36.50
2023-01-20T09:44:47.925Z,35.10
2023-01-20T09:48:39.868Z,34.80
2023-01-20T09:52:32.290Z,35.20
2023-01-20T09:55:59.597Z,35.60
2023-01-20T09:59:33.359Z,38.00
2023-01-20T10:03:06.758Z,32.20
2023-01-20T10:07:06.765Z,32.80
2023-01-20T10:10:39.234Z,31.00
2023-01-20T10:14:15.283Z,34.40
2023-01-20T10:17:50.693Z,33.60
2023-01-20T10:21:35.125Z,32.40
2023-01-20T10:25:06.722Z,28.40
2023-01-20T10:28:36.220Z,38.60
2023-01-20T10:32:01.904Z,30.90
2023-01-20T10:35:29.672Z,39.90
2023-01-20T10:39:11.428Z,33.40
2023-01-20T10:42:35.403Z,37.30
2023-01-20T10:46:40.610Z,39.30
2023-01-20T10:50:12.807Z,38.00
2023-01-20T10:53:54.586Z,41.10
2023-01-20T10:57:18.463Z,40.80
2023-01-20T11:00:43.756Z,42.50
2023-01-20T11:04:20.433Z,36.70
2023-01-20T11:07:45.577Z,38.00
2023-01-20T11:11:14.086Z,37.60
2023-01-20T11:14:38.338Z,43.30
2023-01-20T11:18:17.322Z,47.60
2023-01-20T11:21:41.603Z,46.60
2023-01-20T11:25:06.877Z,42.30
2023-01-20T11:28:48.300Z,35.30
2023-01-20T11:32:44.624Z,31.60
2023-01-20T11:36:19.984Z,36.10
2023-01-20T11:40:02.224Z,36.60
2023-01-20T11:43:40.762Z,34.50
2023-01-20T11:47:28.202Z,37.40
2023-01-20T11:50:58.659Z,44.40
2023-01-20T11:54:28.487Z,42.20
2023-01-20T11:58:02.407Z,40.90
2023-01-20T12:01:32.233Z,40.30
2023-01-20T12:05:23.111Z,34.80
2023-01-20T12:08:52.570Z,41.80
2023-01-20T12:12:33.676Z,45.30
2023-01-20T12:16:02.230Z,34.40
2023-01-20T12:19:40.479Z,31.10
2023-01-20T12:23:39.185Z,37.80
2023-01-20T12:27:03.149Z,39.80
2023-01-20T12:30:43.502Z,43.10
2023-01-20T12:34:13.440Z,41.20
2023-01-20T12:37:48.353Z,43.10
2023-01-20T12:41:23.481Z,47.40
2023-01-20T12:45:00.890Z,45.70
2023-01-20T12:48:38.480Z,43.90
2023-01-20T12:52:17.077Z,50.10
2023-01-20T12:56:00.369Z,49.50
2023-01-20T12:59:44.952Z,50.80
2023-01-20T13:03:40.543Z,47.50
2023-01-20T13:07:19.693Z,42.20
2023-01-20T13:10:52.500Z,44.10
2023-01-20T13:14:31.095Z,36.10
2023-01-20T13:18:16.743Z,38.80
2023-01-20T13:21:41.905Z,43.30
2023-01-20T13:25:07.363Z,42.20
2023-01-20T13:28:32.340Z,41.00
2023-01-20T13:31:56.754Z,36.50
2023-01-20T13:35:45.003Z,36.30
2023-01-20T13:39:31.546Z,39.90
2023-01-20T13:46:19.078Z,37.10
2023-01-20T13:49:52.571Z,36.30
2023-01-20T13:53:22.579Z,31.80
2023-01-20T13:57:20.424Z,31.60
2023-01-20T14:00:45.001Z,28.70
2023-01-20T14:04:16.976Z,31.90
2023-01-20T14:07:45.258Z,29.30
2023-01-20T14:11:17.678Z,33.70
2023-01-20T14:14:44.926Z,33.80
2023-01-20T14:18:16.141Z,35.40
2023-01-20T14:21:42.333Z,31.10
2023-01-20T14:25:21.448Z,31.10
2023-01-20T14:28:51.381Z,32.10
2023-01-20T14:32:38.969Z,30.10
2023-01-20T14:36:39.918Z,32.50
2023-01-20T14:40:43.784Z,29.10
2023-01-20T14:44:44.882Z,32.60
2023-01-20T14:48:42.785Z,32.50
2023-01-20T14:52:45.805Z,35.90
2023-01-20T14:56:43.792Z,40.80
2023-01-20T15:00:41.771Z,38.80
2023-01-20T15:04:39.810Z,40.20
2023-01-20T15:08:39.766Z,41.10
2023-01-20T15:13:06.729Z,39.30
2023-01-20T15:17:05.772Z,37.30
2023-01-20T15:21:16.859Z,43.00
2023-01-20T15:25:26.833Z,40.20
2023-01-20T15:29:35.793Z,39.20
2023-01-20T15:33:33.784Z,35.10
2023-01-20T15:37:33.769Z,34.40
2023-01-20T15:41:31.709Z,27.20
2023-01-20T15:45:31.706Z,26.80
2023-01-20T15:49:29.736Z,33.10
2023-01-20T15:53:27.737Z,30.60
2023-01-20T15:57:27.699Z,28.60
2023-01-20T16:01:30.729Z,32.20
2023-01-20T16:05:28.691Z,33.00
2023-01-20T16:09:43.663Z,37.90
2023-01-20T16:13:41.670Z,39.10
2023-01-20T16:17:45.682Z,38.60
2023-01-20T16:21:45.474Z,39.90
2023-01-20T16:25:43.642Z,34.60
2023-01-20T16:29:48.832Z,30.00
2023-01-20T16:33:46.670Z,27.40
2023-01-20T16:37:44.640Z,34.30
2023-01-20T16:41:43.641Z,34.70
2023-01-20T16:45:43.696Z,31.80
2023-01-20T16:49:41.612Z,30.30
2023-01-20T16:53:39.691Z,25.50
2023-01-20T16:57:37.626Z,28.90
2023-01-20T17:01:36.690Z,35.70
2023-01-20T17:05:34.592Z,30.10
2023-01-20T17:09:32.648Z,29.20
2023-01-20T17:13:31.594Z,33.80
2023-01-20T17:17:30.651Z,39.10
2023-01-20T17:21:28.592Z,35.20
2023-01-20T17:25:29.682Z,37.40
2023-01-20T17:29:28.537Z,31.80
2023-01-20T17:33:26.661Z,32.00
2023-01-20T17:37:24.539Z,30.70
2023-01-20T17:41:22.565Z,27.50
2023-01-20T17:45:20.561Z,27.40
2023-01-20T17:49:18.679Z,30.80
2023-01-20T17:53:18.540Z,31.60
2023-01-20T17:57:16.541Z,31.30
2023-01-20T18:01:30.539Z,38.40
2023-01-20T18:05:28.603Z,44.20
2023-01-20T18:09:28.497Z,39.60
2023-01-20T18:13:26.526Z,42.90
2023-01-20T18:17:24.606Z,40.70
2023-01-20T18:21:36.463Z,40.10
2023-01-20T18:25:34.555Z,44.00
2023-01-20T18:29:32.500Z,45.70
2023-01-20T18:33:30.544Z,55.70
2023-01-20T18:37:28.624Z,57.60
2023-01-20T18:41:28.446Z,54.60
2023-01-20T18:45:26.507Z,55.80
2023-01-20T18:49:29.428Z,56.00
2023-01-20T18:53:29.879Z,64.30
2023-01-20T18:57:28.774Z,57.40
2023-01-20T19:01:29.523Z,52.20
2023-01-20T19:05:27.423Z,46.40
2023-01-20T19:09:26.503Z,47.80
2023-01-20T19:13:26.517Z,43.90
2023-01-20T19:17:24.431Z,29.30
2023-01-20T19:21:24.423Z,41.60
2023-01-20T19:25:23.459Z,31.00
2023-01-20T19:29:27.045Z,28.80
2023-01-20T19:33:26.452Z,31.90
2023-01-20T19:37:24.430Z,27.30
2023-01-20T19:41:24.416Z,27.90
2023-01-20T19:45:22.427Z,25.40
2023-01-20T19:49:22.763Z,22.00
2023-01-20T19:53:20.436Z,24.40
2023-01-20T19:57:18.420Z,22.20
2023-01-20T20:01:31.327Z,22.90
2023-01-20T20:05:29.728Z,22.70
2023-01-20T20:09:32.344Z,17.90
2023-01-20T20:13:31.359Z,19.00
2023-01-20T20:17:32.319Z,17.30
2023-01-20T20:21:33.430Z,20.10
2023-01-20T20:25:31.392Z,22.90
2023-01-20T20:29:31.323Z,20.00
2023-01-20T20:33:29.423Z,22.30
2023-01-20T20:37:27.379Z,21.00
2023-01-20T20:41:26.381Z,17.50
2023-01-20T20:45:26.406Z,19.90
2023-01-20T20:49:29.295Z,16.90
2023-01-20T20:53:32.418Z,17.30
2023-01-20T20:57:23.617Z,19.10
2023-01-20T21:01:22.458Z,19.00
2023-01-20T21:05:21.331Z,19.00
2023-01-20T21:09:19.276Z,19.70
2023-01-20T21:13:17.285Z,16.00
2023-01-20T21:17:16.284Z,19.20
2023-01-20T21:21:18.235Z,16.50
2023-01-20T21:25:16.438Z,16.70
2023-01-20T21:29:07.567Z,20.30
2023-01-20T21:33:05.235Z,22.00
2023-01-20T21:37:03.313Z,19.30
2023-01-20T21:41:10.302Z,18.70
2023-01-20T21:45:08.192Z,17.90
2023-01-20T21:49:38.238Z,17.90
2023-01-20T21:53:36.207Z,13.30
2023-01-20T21:57:41.172Z,15.90
2023-01-20T22:01:41.302Z,12.30
2023-01-20T22:05:39.168Z,13.70
2023-01-20T22:09:37.152Z,11.30
2023-01-20T22:13:36.185Z,14.30
2023-01-20T22:17:34.125Z,13.20
2023-01-20T22:21:32.272Z,13.20
2023-01-20T22:25:30.259Z,13.50
2023-01-20T22:29:28.206Z,11.60
2023-01-20T22:33:28.128Z,8.10
2023-01-20T22:37:26.143Z,11.90
2023-01-20T22:41:24.117Z,15.00
2023-01-20T22:45:22.135Z,11.60
2023-01-20T22:49:20.118Z,10.00
2023-01-20T22:53:18.260Z,12.80
2023-01-20T22:57:16.101Z,14.10
2023-01-20T23:01:14.198Z,13.20
2023-01-20T23:05:12.085Z,12.60
2023-01-20T23:09:10.157Z,9.00
2023-01-20T23:13:08.092Z,7.70
2023-01-20T23:17:07.063Z,7.70
2023-01-20T23:21:06.161Z,9.00
2023-01-20T23:25:05.165Z,7.50
2023-01-20T23:29:03.135Z,6.70
2023-01-20T23:33:01.151Z,7.60
2023-01-20T23:37:00.097Z,10.30
2023-01-20T23:40:58.201Z,7.30
2023-01-20T23:44:56.026Z,7.40
2023-01-20T23:48:54.157Z,7.00
2023-01-20T23:52:52.042Z,6.70
2023-01-20T23:56:50.728Z,5.10
